sensor_id;sensor_type;location;lat;lon;timestamp;pressure;altitude;pressure_sealevel;temperature;humidity
76404;BME280;65232;48.358;2.122;2023-02-26T00:00:00;100767.44;;;3.61;64.40
76404;BME280;65232;48.358;2.122;2023-02-26T00:00:25;100772.16;;;3.56;64.25
76404;BME280;65232;48.358;2.122;2023-02-26T00:00:51;100760.88;;;3.52;64.31
76404;BME280;65232;48.358;2.122;2023-02-26T00:01:20;100771.31;;;3.56;64.26
76404;BME280;65232;48.358;2.122;2023-02-26T00:01:46;100769.75;;;3.51;64.40
76404;BME280;65232;48.358;2.122;2023-02-26T00:02:14;100770.53;;;3.53;64.45
76404;BME280;65232;48.358;2.122;2023-02-26T00:02:40;100765.56;;;3.47;64.09
76404;BME280;65232;48.358;2.122;2023-02-26T00:03:06;100767.88;;;3.53;64.02
76404;BME280;65232;48.358;2.122;2023-02-26T00:03:32;100773.94;;;3.56;63.88
76404;BME280;65232;48.358;2.122;2023-02-26T00:04:00;100767.25;;;3.48;64.11
76404;BME280;65232;48.358;2.122;2023-02-26T00:04:25;100774.44;;;3.46;64.40
76404;BME280;65232;48.358;2.122;2023-02-26T00:04:51;100774.28;;;3.49;64.18
76404;BME280;65232;48.358;2.122;2023-02-26T00:05:17;100770.53;;;3.53;64.25
76404;BME280;65232;48.358;2.122;2023-02-26T00:05:42;100780.09;;;3.56;64.08
76404;BME280;65232;48.358;2.122;2023-02-26T00:06:08;100781.97;;;3.54;63.73
76404;BME280;65232;48.358;2.122;2023-02-26T00:06:36;100770.84;;;3.47;63.96
76404;BME280;65232;48.358;2.122;2023-02-26T00:07:03;100783.91;;;3.50;63.71
76404;BME280;65232;48.358;2.122;2023-02-26T00:07:30;100777.84;;;3.48;63.52
76404;BME280;65232;48.358;2.122;2023-02-26T00:07:56;100776.59;;;3.56;63.61
76404;BME280;65232;48.358;2.122;2023-02-26T00:08:21;100780.75;;;3.60;63.41
76404;BME280;65232;48.358;2.122;2023-02-26T00:08:47;100777.69;;;3.51;63.74
76404;BME280;65232;48.358;2.122;2023-02-26T00:09:12;100772.16;;;3.56;63.81
76404;BME280;65232;48.358;2.122;2023-02-26T00:09:37;100783.84;;;3.52;63.68
76404;BME280;65232;48.358;2.122;2023-02-26T00:10:08;100776.75;;;3.52;63.62
76404;BME280;65232;48.358;2.122;2023-02-26T00:10:34;100784.41;;;3.57;63.55
76404;BME280;65232;48.358;2.122;2023-02-26T00:10:59;100777.78;;;3.50;63.81
76404;BME280;65232;48.358;2.122;2023-02-26T00:11:26;100780.56;;;3.47;63.80
76404;BME280;65232;48.358;2.122;2023-02-26T00:11:51;100777.94;;;3.47;63.82
76404;BME280;65232;48.358;2.122;2023-02-26T00:12:17;100780.66;;;3.45;63.69
76404;BME280;65232;48.358;2.122;2023-02-26T00:12:43;100782.13;;;3.51;63.72
76404;BME280;65232;48.358;2.122;2023-02-26T00:13:10;100776.91;;;3.49;63.64
76404;BME280;65232;48.358;2.122;2023-02-26T00:13:37;100783.91;;;3.50;63.71
76404;BME280;65232;48.358;2.122;2023-02-26T00:14:03;100784.53;;;3.56;63.64
76404;BME280;65232;48.358;2.122;2023-02-26T00:14:28;100783.56;;;3.57;63.45
76404;BME280;65232;48.358;2.122;2023-02-26T00:14:54;100787.19;;;3.56;63.58
76404;BME280;65232;48.358;2.122;2023-02-26T00:15:20;100782.75;;;3.56;63.37
76404;BME280;65232;48.358;2.122;2023-02-26T00:15:47;100787.41;;;3.51;63.41
76404;BME280;65232;48.358;2.122;2023-02-26T00:16:28;100788.19;;;3.53;63.06
76404;BME280;65232;48.358;2.122;2023-02-26T00:18:14;100782.81;;;3.54;62.86
76404;BME280;65232;48.358;2.122;2023-02-26T00:18:40;100793.56;;;3.51;63.15
76404;BME280;65232;48.358;2.122;2023-02-26T00:19:07;100795.28;;;3.52;63.48
76404;BME280;65232;48.358;2.122;2023-02-26T00:19:35;100792.72;;;3.51;63.03
76404;BME280;65232;48.358;2.122;2023-02-26T00:20:00;100794.84;;;3.60;63.10
76404;BME280;65232;48.358;2.122;2023-02-26T00:20:26;100795.19;;;3.54;62.58
76404;BME280;65232;48.358;2.122;2023-02-26T00:20:52;100790.06;;;3.51;62.53
76404;BME280;65232;48.358;2.122;2023-02-26T00:21:19;100789.28;;;3.49;62.71
76404;BME280;65232;48.358;2.122;2023-02-26T00:21:45;100794.88;;;3.43;63.19
76404;BME280;65232;48.358;2.122;2023-02-26T00:22:11;100792.16;;;3.44;63.06
76404;BME280;65232;48.358;2.122;2023-02-26T00:22:38;100789.09;;;3.36;63.35
76404;BME280;65232;48.358;2.122;2023-02-26T00:23:04;100791.75;;;3.36;63.29
76404;BME280;65232;48.358;2.122;2023-02-26T00:23:29;100799.81;;;3.33;63.52
76404;BME280;65232;48.358;2.122;2023-02-26T00:23:56;100797.97;;;3.35;63.50
76404;BME280;65232;48.358;2.122;2023-02-26T00:24:22;100792.25;;;3.43;63.79
76404;BME280;65232;48.358;2.122;2023-02-26T00:24:47;100797.53;;;3.43;63.56
76404;BME280;65232;48.358;2.122;2023-02-26T00:25:13;100791.31;;;3.44;63.39
76404;BME280;65232;48.358;2.122;2023-02-26T00:25:40;100793.19;;;3.42;63.41
76404;BME280;65232;48.358;2.122;2023-02-26T00:26:06;100804.97;;;3.36;63.15
76404;BME280;65232;48.358;2.122;2023-02-26T00:26:33;100807.06;;;3.30;63.41
76404;BME280;65232;48.358;2.122;2023-02-26T00:26:59;100808.78;;;3.31;63.06
76404;BME280;65232;48.358;2.122;2023-02-26T00:27:24;100802.09;;;3.24;63.33
76404;BME280;65232;48.358;2.122;2023-02-26T00:27:50;100810.28;;;3.19;63.61
76404;BME280;65232;48.358;2.122;2023-02-26T00:28:16;100809.25;;;3.22;63.61
76404;BME280;65232;48.358;2.122;2023-02-26T00:28:42;100812.91;;;3.19;63.35
76404;BME280;65232;48.358;2.122;2023-02-26T00:29:08;100814.72;;;3.18;63.61
76404;BME280;65232;48.358;2.122;2023-02-26T00:29:33;100814.63;;;3.20;63.25
76404;BME280;65232;48.358;2.122;2023-02-26T00:29:59;100810.13;;;3.22;63.09
76404;BME280;65232;48.358;2.122;2023-02-26T00:30:25;100809.19;;;3.23;63.18
76404;BME280;65232;48.358;2.122;2023-02-26T00:30:51;100811.69;;;3.26;63.40
76404;BME280;65232;48.358;2.122;2023-02-26T00:31:17;100815.34;;;3.24;63.23
76404;BME280;65232;48.358;2.122;2023-02-26T00:31:42;100810.03;;;3.24;63.33
76404;BME280;65232;48.358;2.122;2023-02-26T00:32:09;100811.28;;;3.16;63.31
76404;BME280;65232;48.358;2.122;2023-02-26T00:32:35;100808.34;;;3.23;63.05
76404;BME280;65232;48.358;2.122;2023-02-26T00:33:01;100817.28;;;3.20;63.10
76404;BME280;65232;48.358;2.122;2023-02-26T00:33:30;100825.06;;;3.23;63.13
76404;BME280;65232;48.358;2.122;2023-02-26T00:33:56;100814.56;;;3.22;63.27
76404;BME280;65232;48.358;2.122;2023-02-26T00:34:22;100818.91;;;3.23;62.79
76404;BME280;65232;48.358;2.122;2023-02-26T00:34:48;100819.84;;;3.22;63.29
76404;BME280;65232;48.358;2.122;2023-02-26T00:35:15;100819.84;;;3.22;62.78
76404;BME280;65232;48.358;2.122;2023-02-26T00:35:40;100819.44;;;3.29;62.59
76404;BME280;65232;48.358;2.122;2023-02-26T00:36:20;100818.41;;;3.32;62.42
76404;BME280;65232;48.358;2.122;2023-02-26T00:38:05;100820.84;;;3.19;62.85
76404;BME280;65232;48.358;2.122;2023-02-26T00:38:33;100819.84;;;3.22;62.90
76404;BME280;65232;48.358;2.122;2023-02-26T00:39:13;100818.22;;;3.19;62.94
76404;BME280;65232;48.358;2.122;2023-02-26T00:40:48;100812.28;;;3.14;62.78
76404;BME280;65232;48.358;2.122;2023-02-26T00:41:14;100817.03;;;3.25;62.96
76404;BME280;65232;48.358;2.122;2023-02-26T00:41:40;100821.47;;;3.24;62.88
76404;BME280;65232;48.358;2.122;2023-02-26T00:42:06;100813.34;;;3.27;62.88
76404;BME280;65232;48.358;2.122;2023-02-26T00:42:31;100815.34;;;3.24;63.00
76404;BME280;65232;48.358;2.122;2023-02-26T00:42:57;100812.91;;;3.19;63.21
76404;BME280;65232;48.358;2.122;2023-02-26T00:43:24;100810.72;;;3.27;62.79
76404;BME280;65232;48.358;2.122;2023-02-26T00:43:52;100808.00;;;3.29;62.61
76404;BME280;65232;48.358;2.122;2023-02-26T00:44:18;100814.13;;;3.29;62.62
76404;BME280;65232;48.358;2.122;2023-02-26T00:44:46;100803.47;;;3.31;62.84
76404;BME280;65232;48.358;2.122;2023-02-26T00:45:12;100809.78;;;3.28;63.12
76404;BME280;65232;48.358;2.122;2023-02-26T00:45:54;100808.69;;;3.32;62.39
76404;BME280;65232;48.358;2.122;2023-02-26T00:46:38;100807.13;;;3.28;62.72
76404;BME280;65232;48.358;2.122;2023-02-26T00:47:53;100802.84;;;3.10;62.79
76404;BME280;65232;48.358;2.122;2023-02-26T00:50:36;100810.34;;;3.17;62.89
76404;BME280;65232;48.358;2.122;2023-02-26T00:51:41;100814.47;;;3.23;62.91
76404;BME280;65232;48.358;2.122;2023-02-26T00:53:28;100816.97;;;3.09;62.99
76404;BME280;65232;48.358;2.122;2023-02-26T00:54:07;100820.47;;;3.09;63.11
76404;BME280;65232;48.358;2.122;2023-02-26T00:54:35;100818.00;;;3.06;63.04
76404;BME280;65232;48.358;2.122;2023-02-26T00:55:00;100820.06;;;3.00;63.18
76404;BME280;65232;48.358;2.122;2023-02-26T00:55:26;100814.13;;;2.96;63.48
76404;BME280;65232;48.358;2.122;2023-02-26T00:55:52;100820.00;;;3.01;63.13
76404;BME280;65232;48.358;2.122;2023-02-26T00:56:17;100820.47;;;3.09;63.03
76404;BME280;65232;48.358;2.122;2023-02-26T00:56:43;100821.41;;;3.08;63.09
76404;BME280;65232;48.358;2.122;2023-02-26T00:57:08;100824.91;;;3.09;63.46
76404;BME280;65232;48.358;2.122;2023-02-26T00:57:34;100824.91;;;3.09;63.70
76404;BME280;65232;48.358;2.122;2023-02-26T00:57:59;100825.16;;;3.04;63.37
76404;BME280;65232;48.358;2.122;2023-02-26T00:58:25;100819.16;;;3.01;63.50
76404;BME280;65232;48.358;2.122;2023-02-26T00:58:50;100818.28;;;3.00;63.61
76404;BME280;65232;48.358;2.122;2023-02-26T00:59:16;100829.50;;;3.05;63.83
76404;BME280;65232;48.358;2.122;2023-02-26T00:59:42;100821.72;;;3.02;63.68
76404;BME280;65232;48.358;2.122;2023-02-26T01:00:08;100825.06;;;3.06;63.60
76404;BME280;65232;48.358;2.122;2023-02-26T01:00:33;100816.34;;;3.04;63.55
76404;BME280;65232;48.358;2.122;2023-02-26T01:00:59;100823.34;;;3.05;63.40
76404;BME280;65232;48.358;2.122;2023-02-26T01:01:25;100824.44;;;3.01;63.17
76404;BME280;65232;48.358;2.122;2023-02-26T01:01:51;100824.34;;;3.02;63.30
76404;BME280;65232;48.358;2.122;2023-02-26T01:02:17;100834.00;;;3.03;63.47
76404;BME280;65232;48.358;2.122;2023-02-26T01:02:43;100829.88;;;2.98;63.62
76404;BME280;65232;48.358;2.122;2023-02-26T01:03:09;100824.34;;;3.02;63.53
76404;BME280;65232;48.358;2.122;2023-02-26T01:03:36;100832.28;;;3.02;63.77
76404;BME280;65232;48.358;2.122;2023-02-26T01:04:02;100830.66;;;3.00;63.75
76404;BME280;65232;48.358;2.122;2023-02-26T01:04:27;100832.44;;;2.99;63.61
76404;BME280;65232;48.358;2.122;2023-02-26T01:04:53;100837.06;;;2.96;64.12
76404;BME280;65232;48.358;2.122;2023-02-26T01:05:20;100832.38;;;3.01;63.75
76404;BME280;65232;48.358;2.122;2023-02-26T01:05:46;100824.44;;;3.01;63.61
76404;BME280;65232;48.358;2.122;2023-02-26T01:06:14;100830.50;;;3.03;63.40
76404;BME280;65232;48.358;2.122;2023-02-26T01:06:47;100829.13;;;2.96;63.82
76404;BME280;65232;48.358;2.122;2023-02-26T01:07:13;100830.50;;;2.86;64.13
76404;BME280;65232;48.358;2.122;2023-02-26T01:08:04;100837.81;;;2.80;64.50
76404;BME280;65232;48.358;2.122;2023-02-26T01:08:43;100832.44;;;2.82;64.08
76404;BME280;65232;48.358;2.122;2023-02-26T01:09:34;100830.03;;;2.77;64.32
76404;BME280;65232;48.358;2.122;2023-02-26T01:10:00;100827.56;;;2.74;64.60
76404;BME280;65232;48.358;2.122;2023-02-26T01:10:27;100831.75;;;2.78;64.58
76404;BME280;65232;48.358;2.122;2023-02-26T01:10:53;100828.47;;;2.73;64.65
76404;BME280;65232;48.358;2.122;2023-02-26T01:11:19;100831.91;;;2.75;64.26
76404;BME280;65232;48.358;2.122;2023-02-26T01:11:44;100832.69;;;2.77;64.38
76404;BME280;65232;48.358;2.122;2023-02-26T01:12:11;100836.34;;;2.75;64.54
76404;BME280;65232;48.358;2.122;2023-02-26T01:12:41;100831.50;;;2.83;64.61
76404;BME280;65232;48.358;2.122;2023-02-26T01:13:08;100830.03;;;2.77;64.50
76404;BME280;65232;48.358;2.122;2023-02-26T01:13:33;100831.91;;;2.75;64.39
76404;BME280;65232;48.358;2.122;2023-02-26T01:13:59;100835.94;;;2.65;65.00
76404;BME280;65232;48.358;2.122;2023-02-26T01:14:25;100838.25;;;2.71;64.80
76404;BME280;65232;48.358;2.122;2023-02-26T01:14:50;100839.50;;;2.64;64.78
76404;BME280;65232;48.358;2.122;2023-02-26T01:15:17;100834.06;;;2.67;64.40
76404;BME280;65232;48.358;2.122;2023-02-26T01:15:47;100843.53;;;2.71;64.41
76404;BME280;65232;48.358;2.122;2023-02-26T01:16:20;100836.41;;;2.73;64.72
76404;BME280;65232;48.358;2.122;2023-02-26T01:17:50;100843.81;;;2.67;64.39
76404;BME280;65232;48.358;2.122;2023-02-26T01:18:27;100836.69;;;2.67;64.82
76404;BME280;65232;48.358;2.122;2023-02-26T01:19:07;100840.13;;;2.69;64.48
76404;BME280;65232;48.358;2.122;2023-02-26T01:19:49;100837.41;;;2.71;65.02
76404;BME280;65232;48.358;2.122;2023-02-26T01:20:19;100839.13;;;2.72;64.63
76404;BME280;65232;48.358;2.122;2023-02-26T01:20:55;100842.47;;;2.75;64.57
76404;BME280;65232;48.358;2.122;2023-02-26T01:21:32;100838.25;;;2.71;64.48
76404;BME280;65232;48.358;2.122;2023-02-26T01:22:06;100844.25;;;2.75;64.65
76404;BME280;65232;48.358;2.122;2023-02-26T01:22:54;100843.97;;;2.81;63.97
76404;BME280;65232;48.358;2.122;2023-02-26T01:23:24;100843.00;;;2.82;64.20
76404;BME280;65232;48.358;2.122;2023-02-26T01:23:50;100839.53;;;2.81;63.81
76404;BME280;65232;48.358;2.122;2023-02-26T01:24:17;100843.97;;;2.81;63.95
76404;BME280;65232;48.358;2.122;2023-02-26T01:24:47;100842.53;;;2.74;64.17
76404;BME280;65232;48.358;2.122;2023-02-26T01:25:17;100844.03;;;2.79;64.21
76404;BME280;65232;48.358;2.122;2023-02-26T01:25:55;100843.09;;;2.80;63.86
76404;BME280;65232;48.358;2.122;2023-02-26T01:26:26;100845.19;;;2.74;63.90
76404;BME280;65232;48.358;2.122;2023-02-26T01:26:52;100844.63;;;2.67;64.18
76404;BME280;65232;48.358;2.122;2023-02-26T01:27:18;100849.44;;;2.59;64.13
76404;BME280;65232;48.358;2.122;2023-02-26T01:27:43;100841.81;;;2.53;64.78
76404;BME280;65232;48.358;2.122;2023-02-26T01:28:09;100836.84;;;2.47;64.82
76404;BME280;65232;48.358;2.122;2023-02-26T01:28:35;100840.94;;;2.53;64.90
76404;BME280;65232;48.358;2.122;2023-02-26T01:29:00;100843.22;;;2.60;64.74
76404;BME280;65232;48.358;2.122;2023-02-26T01:29:26;100847.72;;;2.58;64.75
76404;BME280;65232;48.358;2.122;2023-02-26T01:29:52;100842.78;;;2.52;64.89
76404;BME280;65232;48.358;2.122;2023-02-26T01:30:18;100846.09;;;2.56;64.77
76404;BME280;65232;48.358;2.122;2023-02-26T01:30:44;100843.59;;;2.53;64.61
76404;BME280;65232;48.358;2.122;2023-02-26T01:31:29;100849.31;;;2.62;64.59
76404;BME280;65232;48.358;2.122;2023-02-26T01:32:48;100845.41;;;2.52;64.78
76404;BME280;65232;48.358;2.122;2023-02-26T01:33:23;100843.69;;;2.51;65.01
76404;BME280;65232;48.358;2.122;2023-02-26T01:33:59;100843.59;;;2.53;64.60
76404;BME280;65232;48.358;2.122;2023-02-26T01:34:41;100851.31;;;2.57;64.46
76404;BME280;65232;48.358;2.122;2023-02-26T01:35:49;100843.78;;;2.50;64.66
76404;BME280;65232;48.358;2.122;2023-02-26T01:36:21;100841.13;;;2.50;65.09
76404;BME280;65232;48.358;2.122;2023-02-26T01:36:59;100842.41;;;2.41;64.84
76404;BME280;65232;48.358;2.122;2023-02-26T01:37:52;100840.56;;;2.43;65.10
76404;BME280;65232;48.358;2.122;2023-02-26T01:38:41;100845.69;;;2.46;65.19
76404;BME280;65232;48.358;2.122;2023-02-26T01:39:39;100845.56;;;2.49;64.94
76404;BME280;65232;48.358;2.122;2023-02-26T01:42:16;100838.84;;;2.42;64.85
76404;BME280;65232;48.358;2.122;2023-02-26T01:42:43;100835.13;;;2.46;64.70
76404;BME280;65232;48.358;2.122;2023-02-26T01:43:16;100842.84;;;2.51;64.71
76404;BME280;65232;48.358;2.122;2023-02-26T01:44:07;100847.25;;;2.50;64.30
76404;BME280;65232;48.358;2.122;2023-02-26T01:44:41;100846.63;;;2.45;65.05
76404;BME280;65232;48.358;2.122;2023-02-26T01:45:15;100841.34;;;2.45;64.63
76404;BME280;65232;48.358;2.122;2023-02-26T01:45:58;100838.78;;;2.43;64.64
76404;BME280;65232;48.358;2.122;2023-02-26T01:47:08;100847.34;;;2.48;64.32
76404;BME280;65232;48.358;2.122;2023-02-26T01:47:44;100841.19;;;2.48;65.06
76404;BME280;65232;48.358;2.122;2023-02-26T01:48:29;100842.91;;;2.49;65.40
76404;BME280;65232;48.358;2.122;2023-02-26T01:48:57;100846.34;;;2.51;64.50
76404;BME280;65232;48.358;2.122;2023-02-26T01:49:23;100842.06;;;2.48;64.44
76404;BME280;65232;48.358;2.122;2023-02-26T01:49:49;100849.06;;;2.50;64.32
76404;BME280;65232;48.358;2.122;2023-02-26T01:50:19;100844.63;;;2.50;64.21
76404;BME280;65232;48.358;2.122;2023-02-26T01:50:45;100843.97;;;2.45;64.28
76404;BME280;65232;48.358;2.122;2023-02-26T01:51:11;100843.97;;;2.45;64.29
76404;BME280;65232;48.358;2.122;2023-02-26T01:53:19;100839.69;;;2.42;64.13
76404;BME280;65232;48.358;2.122;2023-02-26T01:53:44;100845.28;;;2.36;64.14
76404;BME280;65232;48.358;2.122;2023-02-26T01:54:11;100841.88;;;2.34;64.55
76404;BME280;65232;48.358;2.122;2023-02-26T01:54:37;100841.88;;;2.34;64.74
76404;BME280;65232;48.358;2.122;2023-02-26T01:55:04;100843.78;;;2.31;64.75
76404;BME280;65232;48.358;2.122;2023-02-26T01:55:30;100845.56;;;2.30;64.81
76404;BME280;65232;48.358;2.122;2023-02-26T01:56:16;100842.06;;;2.30;64.56
76404;BME280;65232;48.358;2.122;2023-02-26T01:56:44;100850.78;;;2.32;64.92
76404;BME280;65232;48.358;2.122;2023-02-26T01:57:15;100847.34;;;2.30;64.29
76404;BME280;65232;48.358;2.122;2023-02-26T01:57:42;100843.94;;;2.28;64.71
76404;BME280;65232;48.358;2.122;2023-02-26T01:58:07;100843.72;;;2.32;64.97
76404;BME280;65232;48.358;2.122;2023-02-26T01:58:35;100850.66;;;2.35;64.65
76404;BME280;65232;48.358;2.122;2023-02-26T01:59:02;100845.38;;;2.35;64.23
76404;BME280;65232;48.358;2.122;2023-02-26T01:59:31;100843.59;;;2.35;64.38
76404;BME280;65232;48.358;2.122;2023-02-26T01:59:58;100850.91;;;2.47;64.32
76404;BME280;65232;48.358;2.122;2023-02-26T02:00:24;100851.75;;;2.48;64.07
76404;BME280;65232;48.358;2.122;2023-02-26T02:00:52;100847.25;;;2.50;64.14
76404;BME280;65232;48.358;2.122;2023-02-26T02:01:17;100851.84;;;2.46;64.10
76404;BME280;65232;48.358;2.122;2023-02-26T02:01:43;100848.63;;;2.40;64.38
76404;BME280;65232;48.358;2.122;2023-02-26T02:02:11;100848.53;;;2.41;64.52
76404;BME280;65232;48.358;2.122;2023-02-26T02:02:37;100852.03;;;2.42;63.98
76404;BME280;65232;48.358;2.122;2023-02-26T02:03:05;100850.34;;;2.41;63.87
76404;BME280;65232;48.358;2.122;2023-02-26T02:03:34;100856.47;;;2.41;63.92
76404;BME280;65232;48.358;2.122;2023-02-26T02:04:00;100848.41;;;2.44;63.73
76404;BME280;65232;48.358;2.122;2023-02-26T02:04:25;100857.81;;;2.50;63.63
76404;BME280;65232;48.358;2.122;2023-02-26T02:04:51;100847.16;;;2.34;63.87
76404;BME280;65232;48.358;2.122;2023-02-26T02:05:25;100850.84;;;2.30;64.12
76404;BME280;65232;48.358;2.122;2023-02-26T02:06:21;100847.34;;;2.30;64.66
76404;BME280;65232;48.358;2.122;2023-02-26T02:06:48;100851.63;;;2.32;64.17
76404;BME280;65232;48.358;2.122;2023-02-26T02:07:15;100852.13;;;2.40;63.83
76404;BME280;65232;48.358;2.122;2023-02-26T02:07:41;100851.78;;;2.29;64.18
76404;BME280;65232;48.358;2.122;2023-02-26T02:08:07;100851.72;;;2.31;64.21
76404;BME280;65232;48.358;2.122;2023-02-26T02:08:34;100856.13;;;2.30;64.15
76404;BME280;65232;48.358;2.122;2023-02-26T02:09:01;100854.88;;;2.20;64.13
76404;BME280;65232;48.358;2.122;2023-02-26T02:09:28;100856.53;;;2.40;63.77
76404;BME280;65232;48.358;2.122;2023-02-26T02:09:54;100849.00;;;2.32;63.86
76404;BME280;65232;48.358;2.122;2023-02-26T02:10:19;100853.69;;;2.44;63.37
76404;BME280;65232;48.358;2.122;2023-02-26T02:10:46;100855.22;;;2.31;64.04
76404;BME280;65232;48.358;2.122;2023-02-26T02:11:13;100857.72;;;2.16;64.24
76404;BME280;65232;48.358;2.122;2023-02-26T02:11:57;100861.00;;;2.21;64.14
76404;BME280;65232;48.358;2.122;2023-02-26T02:15:24;100861.63;;;2.26;64.08
76404;BME280;65232;48.358;2.122;2023-02-26T02:16:02;100863.34;;;2.27;64.28
76404;BME280;65232;48.358;2.122;2023-02-26T02:16:55;100862.47;;;2.26;63.71
76404;BME280;65232;48.358;2.122;2023-02-26T02:20:15;100864.78;;;2.15;64.18
76404;BME280;65232;48.358;2.122;2023-02-26T02:21:50;100859.38;;;2.18;64.07
76404;BME280;65232;48.358;2.122;2023-02-26T02:23:41;100868.47;;;2.11;64.46
76404;BME280;65232;48.358;2.122;2023-02-26T02:25:00;100867.50;;;2.13;64.10
76404;BME280;65232;48.358;2.122;2023-02-26T02:29:18;100861.88;;;2.02;64.41
76404;BME280;65232;48.358;2.122;2023-02-26T02:32:50;100873.25;;;1.84;64.25
76404;BME280;65232;48.358;2.122;2023-02-26T02:33:20;100873.19;;;1.86;64.05
76404;BME280;65232;48.358;2.122;2023-02-26T02:33:57;100872.19;;;1.88;64.19
76404;BME280;65232;48.358;2.122;2023-02-26T02:34:38;100870.63;;;1.84;64.10
76404;BME280;65232;48.358;2.122;2023-02-26T02:35:29;100868.78;;;1.86;64.03
76404;BME280;65232;48.358;2.122;2023-02-26T02:36:00;100869.84;;;1.82;64.26
76404;BME280;65232;48.358;2.122;2023-02-26T02:37:22;100873.00;;;1.90;63.95
76404;BME280;65232;48.358;2.122;2023-02-26T02:37:56;100873.13;;;1.87;64.04
76404;BME280;65232;48.358;2.122;2023-02-26T02:38:39;100874.97;;;1.85;64.19
76404;BME280;65232;48.358;2.122;2023-02-26T02:39:19;100874.78;;;1.90;63.97
76404;BME280;65232;48.358;2.122;2023-02-26T02:39:55;100873.97;;;1.88;63.51
76404;BME280;65232;48.358;2.122;2023-02-26T02:40:31;100878.41;;;1.87;63.55
76404;BME280;65232;48.358;2.122;2023-02-26T02:41:08;100875.91;;;1.84;63.82
76404;BME280;65232;48.358;2.122;2023-02-26T02:41:41;100878.84;;;1.78;63.94
76404;BME280;65232;48.358;2.122;2023-02-26T02:42:31;100884.50;;;1.69;63.63
76404;BME280;65232;48.358;2.122;2023-02-26T02:43:02;100879.09;;;1.72;63.92
76404;BME280;65232;48.358;2.122;2023-02-26T02:43:31;100877.88;;;1.79;63.30
76404;BME280;65232;48.358;2.122;2023-02-26T02:44:01;100881.47;;;1.78;63.43
76404;BME280;65232;48.358;2.122;2023-02-26T02:44:30;100879.03;;;1.73;63.87
76404;BME280;65232;48.358;2.122;2023-02-26T02:45:42;100887.66;;;1.77;63.67
76404;BME280;65232;48.358;2.122;2023-02-26T02:45:54;100890.22;;;1.78;63.75
76404;BME280;65232;48.358;2.122;2023-02-26T02:46:24;100888.72;;;1.73;63.88
76404;BME280;65232;48.358;2.122;2023-02-26T02:46:53;100886.94;;;1.73;63.71
76404;BME280;65232;48.358;2.122;2023-02-26T02:47:21;100879.47;;;1.83;63.19
76404;BME280;65232;48.358;2.122;2023-02-26T02:47:52;100878.34;;;1.89;63.10
76404;BME280;65232;48.358;2.122;2023-02-26T02:48:28;100880.13;;;1.88;63.29
76404;BME280;65232;48.358;2.122;2023-02-26T02:49:04;100883.53;;;1.90;63.25
76404;BME280;65232;48.358;2.122;2023-02-26T02:49:38;100886.25;;;1.89;63.30
76404;BME280;65232;48.358;2.122;2023-02-26T02:50:29;100890.38;;;1.94;63.25
76404;BME280;65232;48.358;2.122;2023-02-26T02:51:15;100892.59;;;1.85;62.83
76404;BME280;65232;48.358;2.122;2023-02-26T02:52:42;100892.09;;;1.76;63.42
76404;BME280;65232;48.358;2.122;2023-02-26T02:53:17;100887.00;;;1.72;63.62
76404;BME280;65232;48.358;2.122;2023-02-26T02:53:48;100886.16;;;1.71;63.57
76404;BME280;65232;48.358;2.122;2023-02-26T02:54:15;100892.94;;;1.77;63.42
76404;BME280;65232;48.358;2.122;2023-02-26T02:54:57;100882.53;;;1.74;63.73
76404;BME280;65232;48.358;2.122;2023-02-26T02:55:28;100891.72;;;1.84;63.28
76404;BME280;65232;48.358;2.122;2023-02-26T02:56:14;100889.69;;;1.91;63.10
76404;BME280;65232;48.358;2.122;2023-02-26T02:56:45;100895.94;;;1.88;63.45
76404;BME280;65232;48.358;2.122;2023-02-26T02:57:17;100889.94;;;1.85;62.77
76404;BME280;65232;48.358;2.122;2023-02-26T02:58:29;100907.75;;;1.80;63.23
76404;BME280;65232;48.358;2.122;2023-02-26T02:59:23;100902.72;;;1.75;62.63
76404;BME280;65232;48.358;2.122;2023-02-26T03:00:00;100896.78;;;1.70;62.88
76404;BME280;65232;48.358;2.122;2023-02-26T03:00:32;100896.72;;;1.71;63.26
76404;BME280;65232;48.358;2.122;2023-02-26T03:01:02;100894.00;;;1.73;63.32
76404;BME280;65232;48.358;2.122;2023-02-26T03:01:31;100895.13;;;1.67;62.92
76404;BME280;65232;48.358;2.122;2023-02-26T03:02:09;100886.41;;;1.65;62.77
76404;BME280;65232;48.358;2.122;2023-02-26T03:02:50;100895.25;;;1.64;62.92
76404;BME280;65232;48.358;2.122;2023-02-26T03:04:11;100894.25;;;1.67;63.02
76404;BME280;65232;48.358;2.122;2023-02-26T03:04:39;100894.13;;;1.70;63.09
76404;BME280;65232;48.358;2.122;2023-02-26T03:05:06;100896.84;;;1.68;62.88
76404;BME280;65232;48.358;2.122;2023-02-26T03:05:31;100895.50;;;1.78;62.81
76404;BME280;65232;48.358;2.122;2023-02-26T03:05:57;100895.28;;;1.83;62.40
76404;BME280;65232;48.358;2.122;2023-02-26T03:06:22;100894.31;;;1.86;62.56
76404;BME280;65232;48.358;2.122;2023-02-26T03:06:48;100898.59;;;1.88;62.60
76404;BME280;65232;48.358;2.122;2023-02-26T03:07:17;100893.44;;;1.85;62.49
76404;BME280;65232;48.358;2.122;2023-02-26T03:07:50;100895.34;;;1.82;62.49
76404;BME280;65232;48.358;2.122;2023-02-26T03:08:20;100893.63;;;1.81;62.46
76404;BME280;65232;48.358;2.122;2023-02-26T03:08:47;100896.22;;;1.82;62.59
76404;BME280;65232;48.358;2.122;2023-02-26T03:09:15;100898.97;;;1.79;62.79
76404;BME280;65232;48.358;2.122;2023-02-26T03:09:41;100901.84;;;1.74;62.63
76404;BME280;65232;48.358;2.122;2023-02-26T03:10:07;100894.19;;;1.68;62.74
76404;BME280;65232;48.358;2.122;2023-02-26T03:10:33;100894.84;;;1.73;63.10
76404;BME280;65232;48.358;2.122;2023-02-26T03:10:59;100899.16;;;1.76;63.06
76404;BME280;65232;48.358;2.122;2023-02-26T03:11:25;100895.06;;;1.69;63.06
76404;BME280;65232;48.358;2.122;2023-02-26T03:11:51;100897.38;;;1.76;62.79
76404;BME280;65232;48.358;2.122;2023-02-26T03:12:17;100895.84;;;1.71;63.07
76404;BME280;65232;48.358;2.122;2023-02-26T03:12:43;100901.13;;;1.71;63.42
76404;BME280;65232;48.358;2.122;2023-02-26T03:13:15;100897.63;;;1.70;63.44